Time;durP1;ratioP1;P1;durP2;ratioP2;P2;SDS_P1;SDS_P2;PMS_P1;PMS_P2;Temp;Humidity;BMP_temperature;BMP_pressure;BME280_temperature;BME280_humidity;BME280_pressure;Samples;Min_cycle;Max_cycle;Signal;HPM_P1;HPM_P2
2022/09/01 00:01:41;;;;;;;4.03;1.23;;;13.80;99.90;;;;;;5033305;28;20041;-25
2022/09/01 00:04:08;;;;;;;2.92;1.08;;;13.70;99.90;;;;;;5033124;28;20045;-25
2022/09/01 00:06:37;;;;;;;1.30;0.80;;;13.80;99.90;;;;;;5034527;28;20053;-25
2022/09/01 00:09:10;;;;;;;1.73;1.05;;;13.70;73.40;;;;;;5034172;28;20483;-25
2022/09/01 00:11:37;;;;;;;2.22;1.27;;;13.80;49.50;;;;;;5033904;28;20497;-25
2022/09/01 00:14:05;;;;;;;5.20;1.20;;;13.70;1.00;;;;;;5030396;28;20449;-25
2022/09/01 00:16:32;;;;;;;2.28;1.00;;;13.70;1.00;;;;;;5033137;28;20461;-25
2022/09/01 00:18:58;;;;;;;1.80;1.00;;;13.70;1.00;;;;;;5034250;28;20420;-28
2022/09/01 00:21:33;;;;;;;3.20;1.00;;;13.70;1.00;;;;;;5014229;28;20049;-25
2022/09/01 00:24:00;;;;;;;1.67;1.08;;;13.70;1.00;;;;;;5014364;28;20488;-25
2022/09/01 00:26:31;;;;;;;1.98;1.00;;;13.70;1.00;;;;;;5040769;28;20144;-25
2022/09/01 00:28:57;;;;;;;1.25;0.80;;;13.70;1.00;;;;;;5051509;28;20475;-25
2022/09/01 00:31:25;;;;;;;3.40;1.45;;;13.70;1.00;;;;;;5052629;28;20055;-25
2022/09/01 00:33:51;;;;;;;2.40;0.82;;;13.60;1.00;;;;;;5052764;28;20530;-25
2022/09/01 00:36:18;;;;;;;1.92;1.05;;;13.60;1.00;;;;;;5054339;28;20065;-26
2022/09/01 00:38:44;;;;;;;1.65;1.20;;;13.60;1.00;;;;;;5043117;28;20045;-25
2022/09/01 00:41:11;;;;;;;2.15;1.00;;;13.60;1.00;;;;;;5033700;28;20443;-25
2022/09/01 00:43:50;;;;;;;3.35;1.20;;;13.50;1.00;;;;;;5032507;28;20049;-25
2022/09/01 00:46:31;;;;;;;4.53;1.30;;;13.50;1.00;;;;;;5034571;28;20072;-25
2022/09/01 00:49:08;;;;;;;3.17;1.20;;;13.50;1.00;;;;;;5053581;28;20529;-25
2022/09/01 00:51:41;;;;;;;1.88;1.08;;;13.40;1.00;;;;;;5038604;28;20077;-25
2022/09/01 00:54:12;;;;;;;4.97;1.10;;;13.50;1.00;;;;;;5033503;28;20053;-25
2022/09/01 00:56:40;;;;;;;1.80;1.13;;;13.40;1.00;;;;;;5033651;28;20049;-25
2022/09/01 00:59:08;;;;;;;2.35;1.13;;;13.40;1.00;;;;;;5033020;28;20041;-26
2022/09/01 01:01:37;;;;;;;2.70;0.90;;;13.40;1.00;;;;;;5053453;28;20049;-25
2022/09/01 01:04:04;;;;;;;1.75;1.38;;;13.40;1.00;;;;;;5036342;28;20407;-25
2022/09/01 01:06:33;;;;;;;2.13;1.13;;;13.40;1.00;;;;;;5036055;28;20056;-25
2022/09/01 01:09:00;;;;;;;1.83;1.08;;;13.40;1.00;;;;;;5052412;28;20143;-25
2022/09/01 01:11:29;;;;;;;2.08;1.40;;;13.40;1.00;;;;;;5053637;28;20128;-25
2022/09/01 01:14:15;;;;;;;3.78;1.13;;;13.50;1.00;;;;;;5053325;28;20091;-25
2022/09/01 01:16:47;;;;;;;2.25;1.40;;;13.40;1.00;;;;;;5037067;28;20495;-25
2022/09/01 01:23:09;;;;;;;6.47;1.20;;;13.50;1.00;;;;;;4994241;28;20053;-25
2022/09/01 01:25:47;;;;;;;2.45;1.60;;;13.50;1.00;;;;;;5011908;28;20065;-25
2022/09/01 01:28:28;;;;;;;1.83;1.45;;;13.60;1.00;;;;;;5026067;28;20061;-25
2022/09/01 01:31:04;;;;;;;2.25;1.20;;;13.50;1.00;;;;;;5033401;28;20458;-25
2022/09/01 01:33:49;;;;;;;4.95;1.05;;;13.60;1.00;;;;;;5032267;28;20496;-26
2022/09/01 01:36:25;;;;;;;1.98;1.35;;;13.60;1.00;;;;;;5033310;28;20563;-25
2022/09/01 01:38:52;;;;;;;4.28;1.20;;;13.60;1.00;;;;;;5036909;28;20388;-26
2022/09/01 01:41:18;;;;;;;2.47;1.10;;;13.60;1.00;;;;;;5035879;28;20052;-25
2022/09/01 01:43:45;;;;;;;4.88;1.15;;;13.70;1.00;;;;;;5036889;28;20045;-26
2022/09/01 01:46:13;;;;;;;1.65;1.10;;;13.60;1.00;;;;;;5036923;28;20049;-25
2022/09/01 01:48:41;;;;;;;3.67;1.42;;;13.70;1.00;;;;;;5035841;28;20152;-25
2022/09/01 01:51:09;;;;;;;2.78;1.25;;;13.70;1.00;;;;;;5035630;28;20103;-25
2022/09/01 01:53:35;;;;;;;2.30;1.00;;;13.70;1.00;;;;;;5034544;28;20521;-25
2022/09/01 01:56:01;;;;;;;2.25;1.13;;;13.70;1.00;;;;;;5031514;28;20096;-25
2022/09/01 01:58:27;;;;;;;3.33;1.15;;;13.80;1.00;;;;;;5036636;28;20120;-25
2022/09/01 02:00:57;;;;;;;2.60;1.00;;;13.80;1.00;;;;;;5035567;28;20172;-25
2022/09/01 02:03:32;;;;;;;1.20;0.90;;;13.80;1.00;;;;;;5035531;28;20064;-25
2022/09/01 02:06:07;;;;;;;2.08;1.15;;;13.90;1.00;;;;;;5034926;28;20488;-25
2022/09/01 02:08:36;;;;;;;3.35;1.23;;;13.90;1.00;;;;;;5037373;28;20045;-25
2022/09/01 02:11:03;;;;;;;2.33;1.15;;;13.80;1.00;;;;;;5037242;28;20407;-25
2022/09/01 02:13:29;;;;;;;1.40;1.20;;;13.90;1.00;;;;;;5033041;28;20045;-25
2022/09/01 02:16:02;;;;;;;2.45;1.20;;;13.80;99.90;;;;;;5038055;28;20060;-25
2022/09/01 02:18:34;;;;;;;2.45;1.05;;;13.90;99.90;;;;;;5056205;28;20044;-25
2022/09/01 02:21:01;;;;;;;3.83;1.10;;;13.90;99.90;;;;;;5056555;28;20088;-25
2022/09/01 02:23:27;;;;;;;2.35;1.20;;;14.00;99.90;;;;;;5042376;28;20127;-25
2022/09/01 02:25:58;;;;;;;2.33;1.08;;;13.90;99.90;;;;;;5036173;28;20053;-25
2022/09/01 02:28:27;;;;;;;2.00;1.10;;;14.00;99.90;;;;;;5036482;28;20458;-25
2022/09/01 02:30:58;;;;;;;1.02;0.70;;;14.00;99.90;;;;;;5037223;28;20531;-26
2022/09/01 02:33:27;;;;;;;1.45;1.15;;;14.00;99.90;;;;;;5028114;28;20060;-26
2022/09/01 02:35:56;;;;;;;2.58;0.90;;;14.00;99.90;;;;;;5034877;28;20049;-25
2022/09/01 02:38:27;;;;;;;2.08;1.02;;;14.00;99.90;;;;;;5035867;28;20042;-26
2022/09/01 02:40:55;;;;;;;2.75;0.98;;;14.00;99.90;;;;;;5035902;28;20521;-25
2022/09/01 02:43:21;;;;;;;2.45;1.05;;;14.00;99.90;;;;;;5034721;28;20091;-25
2022/09/01 02:45:53;;;;;;;3.95;1.13;;;13.90;99.90;;;;;;5034017;28;20045;-25
2022/09/01 02:48:23;;;;;;;2.00;1.02;;;14.00;99.90;;;;;;5035665;28;20048;-25
2022/09/01 02:50:52;;;;;;;2.35;1.00;;;14.00;99.90;;;;;;5033950;28;20049;-26
2022/09/01 02:53:19;;;;;;;2.95;1.27;;;14.00;99.90;;;;;;5035257;28;20114;-25
2022/09/01 02:55:45;;;;;;;2.25;1.20;;;13.90;99.90;;;;;;5036209;28;20060;-25
2022/09/01 02:58:18;;;;;;;4.93;1.73;;;14.00;99.90;;;;;;5034125;28;20041;-25
2022/09/01 03:00:45;;;;;;;1.15;0.80;;;13.90;99.90;;;;;;5036148;28;20049;-25
2022/09/01 03:03:12;;;;;;;2.63;1.10;;;13.90;99.90;;;;;;5035426;28;20054;-25
2022/09/01 03:05:38;;;;;;;2.58;0.98;;;13.80;99.90;;;;;;5046532;28;20048;-25
2022/09/01 03:08:09;;;;;;;1.67;1.08;;;13.80;99.90;;;;;;5055546;28;20131;-25
2022/09/01 03:10:40;;;;;;;4.10;1.00;;;13.80;99.90;;;;;;5047234;28;20049;-25
2022/09/01 03:13:12;;;;;;;2.45;1.15;;;13.80;99.90;;;;;;5035955;28;20045;-25
2022/09/01 03:15:39;;;;;;;1.63;1.00;;;13.80;99.90;;;;;;5034197;28;20045;-26
2022/09/01 03:18:06;;;;;;;3.50;1.30;;;13.80;99.90;;;;;;5033830;28;20124;-25
2022/09/01 03:20:36;;;;;;;1.55;1.27;;;13.70;99.90;;;;;;5033625;28;20045;-25
2022/09/01 03:23:13;;;;;;;1.80;0.98;;;13.60;99.90;;;;;;5033976;28;20037;-26
2022/09/01 03:25:38;;;;;;;2.13;1.30;;;13.70;99.90;;;;;;5034387;28;20049;-25
2022/09/01 03:28:04;;;;;;;4.00;1.40;;;13.70;99.90;;;;;;5034062;28;20430;-25
2022/09/01 03:30:35;;;;;;;1.60;1.20;;;13.70;99.90;;;;;;5034952;28;20120;-25
2022/09/01 03:33:09;;;;;;;5.85;1.30;;;13.70;99.90;;;;;;5035680;28;20111;-25
2022/09/01 03:35:37;;;;;;;3.47;1.08;;;13.70;99.90;;;;;;5044674;28;20061;-25
2022/09/01 03:38:06;;;;;;;1.90;1.17;;;13.70;99.90;;;;;;5035581;28;20038;-25
2022/09/01 03:40:36;;;;;;;1.00;0.88;;;13.60;99.90;;;;;;5034716;28;20081;-25
2022/09/01 03:43:03;;;;;;;2.25;1.00;;;13.70;99.90;;;;;;5034441;28;20560;-25
2022/09/01 03:45:33;;;;;;;3.58;1.20;;;13.60;99.90;;;;;;5034141;28;20038;-25
2022/09/01 03:48:00;;;;;;;2.72;1.33;;;13.70;99.90;;;;;;5033613;28;20037;-25
2022/09/01 03:50:27;;;;;;;2.03;1.20;;;13.60;99.90;;;;;;5034623;28;20050;-25
2022/09/01 03:52:57;;;;;;;2.00;1.52;;;13.60;99.90;;;;;;5032522;28;20485;-25
2022/09/01 03:55:26;;;;;;;2.42;1.33;;;13.60;99.90;;;;;;5049398;28;20049;-25
2022/09/01 03:57:59;;;;;;;2.05;1.23;;;13.60;99.90;;;;;;5054551;28;20121;-25
2022/09/01 04:00:28;;;;;;;3.58;1.30;;;13.50;99.90;;;;;;5042031;28;20428;-25
2022/09/01 04:02:56;;;;;;;1.40;0.95;;;13.40;99.90;;;;;;5038266;28;20033;-25
2022/09/01 04:05:29;;;;;;;1.63;1.08;;;13.40;99.90;;;;;;5050741;28;20052;-25
2022/09/01 04:08:04;;;;;;;1.63;1.25;;;13.30;99.90;;;;;;5035437;28;20494;-25
2022/09/01 04:10:36;;;;;;;1.70;1.27;;;13.20;99.90;;;;;;5053517;28;20052;-25
2022/09/01 04:13:04;;;;;;;2.13;1.75;;;13.10;99.90;;;;;;5042961;28;20045;-25
2022/09/01 04:15:31;;;;;;;1.80;1.65;;;13.10;99.90;;;;;;5016870;28;20048;-25
2022/09/01 04:18:09;;;;;;;4.63;1.98;;;13.10;1.00;;;;;;5033992;28;20480;-25
2022/09/01 04:20:47;;;;;;;5.03;1.60;;;12.90;1.00;;;;;;5034685;28;20091;-25
2022/09/01 04:23:32;;;;;;;3.55;1.35;;;12.90;1.00;;;;;;5033719;28;20081;-25
2022/09/01 04:26:13;;;;;;;2.10;1.50;;;12.90;1.00;;;;;;5032930;28;20052;-25
2022/09/01 04:28:44;;;;;;;2.53;1.63;;;12.80;1.00;;;;;;5034309;28;20064;-25
2022/09/01 04:31:18;;;;;;;1.52;1.40;;;12.70;1.00;;;;;;5033946;28;20476;-25
2022/09/01 04:33:56;;;;;;;3.63;1.73;;;12.60;1.00;;;;;;5033882;28;20075;-25
2022/09/01 04:36:27;;;;;;;2.53;2.10;;;12.50;1.00;;;;;;5032657;28;20084;-26
2022/09/01 04:38:58;;;;;;;2.28;1.90;;;12.50;1.00;;;;;;5033630;28;20111;-25
2022/09/01 04:41:29;;;;;;;2.45;1.77;;;12.50;1.00;;;;;;5033968;28;20450;-25
2022/09/01 04:43:59;;;;;;;1.83;1.58;;;12.50;1.00;;;;;;5033623;28;20048;-27
2022/09/01 04:46:28;;;;;;;2.50;1.92;;;12.50;1.00;;;;;;5048656;28;20041;-27
2022/09/01 04:49:00;;;;;;;3.25;2.08;;;12.40;7.10;;;;;;5049348;28;20045;-27
2022/09/01 04:51:28;;;;;;;3.85;2.28;;;12.30;68.30;;;;;;5033702;28;20050;-27
2022/09/01 04:53:56;;;;;;;3.08;2.08;;;12.40;56.70;;;;;;5031951;28;20049;-31
2022/09/01 04:56:22;;;;;;;4.85;2.35;;;12.30;81.40;;;;;;5052607;28;20056;-27
2022/09/01 04:59:05;;;;;;;2.00;1.80;;;12.30;99.90;;;;;;5053414;28;20126;-27
2022/09/01 05:01:42;;;;;;;5.68;2.83;;;12.20;99.90;;;;;;5048403;28;20092;-28
2022/09/01 05:04:11;;;;;;;5.75;2.80;;;12.30;99.90;;;;;;5033491;28;20089;-27
2022/09/01 05:06:43;;;;;;;2.63;2.00;;;12.30;99.90;;;;;;5032379;28;20084;-27
2022/09/01 05:09:12;;;;;;;4.03;1.88;;;12.30;99.90;;;;;;5041969;28;20554;-27
2022/09/01 05:11:41;;;;;;;5.10;2.42;;;12.20;99.90;;;;;;5052740;28;20102;-28
2022/09/01 05:14:07;;;;;;;4.43;2.50;;;12.30;99.90;;;;;;5053502;28;20053;-27
2022/09/01 05:16:34;;;;;;;2.90;2.47;;;12.30;99.90;;;;;;5035419;28;20049;-27
2022/09/01 05:19:00;;;;;;;4.28;2.28;;;12.30;99.90;;;;;;5036953;28;20041;-28
2022/09/01 05:21:28;;;;;;;4.57;2.30;;;12.30;99.90;;;;;;5036158;28;20057;-27
2022/09/01 05:23:56;;;;;;;9.15;2.72;;;12.30;99.90;;;;;;5043833;28;20052;-27
2022/09/01 05:26:30;;;;;;;4.38;2.35;;;12.30;99.90;;;;;;5053878;28;20110;-27
2022/09/01 05:28:59;;;;;;;4.95;2.38;;;12.30;99.90;;;;;;5036310;28;20475;-27
2022/09/01 05:31:28;;;;;;;3.08;2.28;;;12.40;99.90;;;;;;5036863;28;20541;-27
2022/09/01 05:33:56;;;;;;;3.50;2.47;;;12.50;99.90;;;;;;5037128;28;20139;-27
2022/09/01 05:36:23;;;;;;;2.70;2.42;;;12.60;99.90;;;;;;5057083;28;20075;-27
2022/09/01 05:38:51;;;;;;;3.67;3.03;;;12.60;99.90;;;;;;5056116;28;20474;-28
2022/09/01 05:41:19;;;;;;;3.60;2.40;;;12.70;99.90;;;;;;5035949;28;20045;-27
2022/09/01 05:43:48;;;;;;;2.92;1.95;;;12.70;99.90;;;;;;5037227;28;20450;-27
2022/09/01 05:46:25;;;;;;;3.17;2.33;;;12.90;99.90;;;;;;5036917;28;20052;-27
2022/09/01 05:48:52;;;;;;;3.15;2.30;;;12.90;99.90;;;;;;5035955;28;20391;-27
2022/09/01 05:51:25;;;;;;;4.95;2.20;;;13.10;99.90;;;;;;5051667;28;20437;-27
2022/09/01 05:53:53;;;;;;;;;;;13.10;99.90;;;;;;5035322;28;20190;-28
2022/09/01 05:56:19;;;;;;;3.35;1.65;;;13.20;1.00;;;;;;5056751;28;20362;-28
2022/09/01 05:58:47;;;;;;;3.35;2.13;;;13.30;99.90;;;;;;5056524;28;20084;-27
2022/09/01 06:01:21;;;;;;;3.08;2.00;;;13.40;99.90;;;;;;5043384;28;20056;-27
2022/09/01 06:03:53;;;;;;;4.95;2.00;;;13.50;99.90;;;;;;5036159;28;20469;-28
2022/09/01 06:06:25;;;;;;;4.93;1.67;;;13.60;99.90;;;;;;5051990;28;20049;-27
2022/09/01 06:08:57;;;;;;;4.57;1.90;;;13.60;99.90;;;;;;5036276;28;20487;-28
2022/09/01 06:11:25;;;;;;;5.10;1.98;;;13.80;99.90;;;;;;5036497;28;20107;-27
2022/09/01 06:13:57;;;;;;;4.20;1.90;;;13.90;99.90;;;;;;5036473;28;20053;-28
2022/09/01 06:16:24;;;;;;;2.83;1.93;;;14.00;99.90;;;;;;5033872;28;20324;-27
2022/09/01 06:18:54;;;;;;;2.92;1.52;;;14.10;99.90;;;;;;5037048;28;20053;-28
2022/09/01 06:21:24;;;;;;;2.90;1.88;;;14.20;99.90;;;;;;5019342;28;20049;-27
2022/09/01 06:23:54;;;;;;;2.78;1.83;;;14.30;99.90;;;;;;5052371;28;20101;-27
2022/09/01 06:26:28;;;;;;;3.50;1.95;;;14.50;99.90;;;;;;5056173;28;20044;-27
2022/09/01 06:29:09;;;;;;;2.35;1.95;;;14.60;99.90;;;;;;5035042;28;20041;-27
2022/09/01 06:31:38;;;;;;;2.95;1.80;;;14.80;99.90;;;;;;5036739;28;20049;-27
2022/09/01 06:34:07;;;;;;;3.45;2.17;;;14.90;44.40;;;;;;5034028;28;20380;-28
2022/09/01 06:36:36;;;;;;;3.40;2.13;;;15.00;20.30;;;;;;5035825;28;20061;-28
2022/09/01 06:39:07;;;;;;;9.07;4.57;;;15.10;12.60;;;;;;5033591;28;20448;-28
2022/09/01 06:41:33;;;;;;;2.95;2.00;;;15.20;1.00;;;;;;5034185;28;20042;-27
2022/09/01 06:44:00;;;;;;;4.18;1.98;;;15.30;1.00;;;;;;5039202;28;20437;-28
2022/09/01 06:46:28;;;;;;;1.83;1.55;;;15.30;1.00;;;;;;5040149;28;20483;-27
2022/09/01 06:48:57;;;;;;;3.53;1.50;;;15.40;1.00;;;;;;5041466;28;20045;-27
2022/09/01 06:51:27;;;;;;;4.13;1.75;;;15.40;1.00;;;;;;5044200;28;20053;-27
2022/09/01 06:53:58;;;;;;;4.07;1.45;;;15.50;1.00;;;;;;5041900;28;20041;-27
2022/09/01 06:56:30;;;;;;;2.95;1.75;;;15.60;1.00;;;;;;5053778;28;20407;-29
2022/09/01 06:58:57;;;;;;;2.42;1.30;;;15.70;1.00;;;;;;5038589;28;20128;-28
2022/09/01 07:01:24;;;;;;;3.00;1.50;;;16.00;1.00;;;;;;5062290;28;20314;-28
2022/09/01 07:04:03;;;;;;;2.35;1.23;;;16.30;1.00;;;;;;5038248;28;20040;-27
2022/09/01 07:06:31;;;;;;;2.58;1.25;;;16.40;99.90;;;;;;5040827;28;20069;-28
2022/09/01 07:09:13;;;;;;;2.45;1.10;;;16.50;99.90;;;;;;5034433;28;20048;-28
2022/09/01 07:11:46;;;;;;;4.20;1.15;;;16.60;99.90;;;;;;5035231;28;20048;-27
2022/09/01 07:14:15;;;;;;;2.40;1.20;;;16.60;91.30;;;;;;5035317;28;20480;-27
2022/09/01 07:16:42;;;;;;;1.83;1.10;;;16.50;38.70;;;;;;5035197;28;20045;-27
2022/09/01 07:19:13;;;;;;;3.05;1.27;;;16.50;7.90;;;;;;5043096;28;20053;-27
2022/09/01 07:21:40;;;;;;;2.85;1.60;;;16.40;58.30;;;;;;5053930;28;20080;-27
2022/09/01 07:24:06;;;;;;;5.03;3.55;;;16.30;99.90;;;;;;5054998;28;20498;-28
2022/09/01 07:26:36;;;;;;;2.40;1.77;;;16.50;99.90;;;;;;5037641;28;20100;-27
2022/09/01 07:29:06;;;;;;;4.43;1.67;;;16.70;99.90;;;;;;5034970;28;20045;-27
2022/09/01 07:31:39;;;;;;;4.90;2.00;;;17.00;99.90;;;;;;5035791;28;20076;-27
2022/09/01 07:34:12;;;;;;;2.80;1.13;;;17.30;93.90;;;;;;5036044;28;20467;-27
2022/09/01 07:36:44;;;;;;;2.10;1.00;;;17.60;5.60;;;;;;5054675;28;20045;-28
2022/09/01 07:39:15;;;;;;;3.33;1.20;;;17.70;1.00;;;;;;5049364;28;20377;-28
2022/09/01 07:41:41;;;;;;;6.30;1.73;;;17.70;1.00;;;;;;5034515;28;20116;-27
2022/09/01 07:44:12;;;;;;;1.73;1.00;;;17.70;1.00;;;;;;5043916;28;20049;-27
2022/09/01 07:46:38;;;;;;;3.67;1.08;;;17.70;1.00;;;;;;5053475;28;20071;-28
2022/09/01 07:49:15;;;;;;;4.38;1.52;;;17.70;1.00;;;;;;5032676;28;20056;-27
2022/09/01 07:51:45;;;;;;;2.70;1.42;;;17.70;1.00;;;;;;5029484;28;20381;-27
2022/09/01 07:54:12;;;;;;;4.97;1.38;;;17.80;1.00;;;;;;5030433;28;20106;-27
2022/09/01 07:56:39;;;;;;;2.80;1.50;;;18.00;1.00;;;;;;5022772;28;20049;-29
2022/09/01 07:59:04;;;;;;;5.15;1.63;;;18.10;99.90;;;;;;5033615;28;20088;-27
2022/09/01 08:01:32;;;;;;;2.60;1.40;;;18.30;99.90;;;;;;5048218;28;20400;-28
2022/09/01 08:04:01;;;;;;;3.85;2.90;;;18.50;99.90;;;;;;5031822;28;20506;-27
2022/09/01 08:06:28;;;;;;;1.98;1.30;;;18.70;99.90;;;;;;5050310;28;20125;-28
2022/09/01 08:08:58;;;;;;;3.28;1.50;;;18.90;99.90;;;;;;5048578;28;20511;-28
2022/09/01 08:11:27;;;;;;;1.88;1.13;;;19.00;99.90;;;;;;5034216;28;20053;-28
2022/09/01 08:13:57;;;;;;;3.00;1.13;;;19.20;99.90;;;;;;5034207;28;20466;-27
2022/09/01 08:16:27;;;;;;;4.30;1.25;;;19.30;99.90;;;;;;5032613;28;20050;-29
2022/09/01 08:18:53;;;;;;;4.30;1.33;;;19.50;90.50;;;;;;5049864;28;20103;-28
2022/09/01 08:21:22;;;;;;;4.53;1.25;;;19.70;99.90;;;;;;5034107;28;20471;-29
2022/09/01 08:23:51;;;;;;;2.45;1.05;;;20.00;99.90;;;;;;5034056;28;20077;-27
2022/09/01 08:26:18;;;;;;;2.72;1.20;;;20.30;6.60;;;;;;5016100;28;20045;-27
2022/09/01 08:28:49;;;;;;;2.75;1.17;;;20.50;1.00;;;;;;5037026;28;20041;-27
2022/09/01 08:31:18;;;;;;;2.83;1.83;;;20.60;99.90;;;;;;5053918;28;20083;-27
2022/09/01 08:33:54;;;;;;;4.93;1.75;;;20.50;99.90;;;;;;5043912;28;20451;-27
2022/09/01 08:36:28;;;;;;;3.88;1.52;;;20.40;99.90;;;;;;5039985;28;20076;-28
2022/09/01 08:38:59;;;;;;;5.28;1.40;;;20.40;99.90;;;;;;5031615;28;20112;-28
2022/09/01 08:41:31;;;;;;;3.90;1.20;;;20.40;99.90;;;;;;5034008;28;20180;-28
2022/09/01 08:44:08;;;;;;;4.13;2.00;;;20.30;99.90;;;;;;5033783;28;20049;-28
2022/09/01 08:46:38;;;;;;;2.83;1.30;;;20.20;99.90;;;;;;5033602;28;20057;-27
2022/09/01 08:49:23;;;;;;;3.97;1.50;;;20.00;99.90;;;;;;5030879;28;20077;-27
2022/09/01 08:52:16;;;;;;;2.05;1.10;;;19.80;99.90;;;;;;5032765;28;20041;-27
2022/09/01 08:54:52;;;;;;;;;;;19.70;1.00;;;;;;5041883;28;20091;-27
2022/09/01 08:57:40;;;;;;;1.80;1.00;;;19.60;1.00;;;;;;5052418;28;19920;-27
2022/09/01 09:00:12;;;;;;;4.20;1.10;;;19.90;1.00;;;;;;5013924;28;20054;-27
2022/09/01 09:03:19;;;;;;;4.00;1.20;;;20.30;1.00;;;;;;5014442;28;20049;-28
2022/09/01 09:06:19;;;;;;;6.30;1.65;;;20.60;99.90;;;;;;5031000;28;20541;-28
2022/09/01 09:08:56;;;;;;;3.05;1.33;;;21.30;99.90;;;;;;5032745;28;20092;-28
2022/09/01 09:12:04;;;;;;;3.38;1.10;;;22.10;99.90;;;;;;5036406;28;20140;-29
2022/09/01 09:14:33;;;;;;;6.28;1.15;;;23.20;1.00;;;;;;5053523;28;20052;-29
2022/09/01 09:16:58;;;;;;;1.60;0.77;;;23.90;99.90;;;;;;5053404;28;20049;-28
2022/09/01 09:19:30;;;;;;;5.53;1.25;;;24.50;1.00;;;;;;5042953;28;20052;-28
2022/09/01 09:21:58;;;;;;;6.30;1.30;;;24.80;1.00;;;;;;5033452;28;20041;-27
2022/09/01 09:24:54;;;;;;;2.10;0.90;;;25.10;99.90;;;;;;5037557;28;20049;-27
2022/09/01 09:27:24;;;;;;;3.10;1.10;;;25.40;99.90;;;;;;5025384;28;20053;-28
2022/09/01 09:29:55;;;;;;;1.65;1.20;;;25.60;99.90;;;;;;5042001;28;20120;-28
2022/09/01 09:32:43;;;;;;;2.50;1.85;;;25.50;99.90;;;;;;5030411;28;20049;-27
2022/09/01 09:35:32;;;;;;;2.22;1.20;;;25.90;99.90;;;;;;5047109;28;20049;-28
2022/09/01 09:38:21;;;;;;;3.33;1.55;;;26.30;99.90;;;;;;5053979;28;20056;-28
2022/09/01 09:41:00;;;;;;;3.97;1.13;;;26.70;99.90;;;;;;5051616;28;20080;-28
2022/09/01 09:43:32;;;;;;;1.77;0.90;;;26.70;99.90;;;;;;5019828;28;20049;-28
2022/09/01 09:46:22;;;;;;;6.57;1.00;;;26.70;99.90;;;;;;5053170;28;20081;-28
2022/09/01 09:49:05;;;;;;;1.30;0.50;;;26.80;99.90;;;;;;5053027;28;20053;-29
2022/09/01 09:51:32;;;;;;;4.10;0.80;;;26.60;99.90;;;;;;5034154;28;20049;-28
2022/09/01 09:54:17;;;;;;;2.25;0.57;;;26.60;99.90;;;;;;5029900;28;20049;-28
2022/09/01 09:56:47;;;;;;;1.85;0.73;;;26.60;99.90;;;;;;5033115;28;20049;-29
2022/09/01 09:59:35;;;;;;;2.28;1.27;;;26.50;99.90;;;;;;5035295;28;20085;-29
2022/09/01 10:02:33;;;;;;;1.83;0.70;;;26.20;99.90;;;;;;5034746;28;20049;-28
2022/09/01 10:05:20;;;;;;;4.18;1.20;;;26.50;99.90;;;;;;5036562;28;20045;-27
2022/09/01 10:07:46;;;;;;;3.88;0.90;;;26.80;99.90;;;;;;5036102;28;20037;-28
2022/09/01 10:10:40;;;;;;;1.95;1.15;;;27.00;99.90;;;;;;5036193;28;20071;-28
2022/09/01 10:13:18;;;;;;;3.47;0.85;;;27.40;99.90;;;;;;5034652;28;20126;-29
2022/09/01 10:15:53;;;;;;;3.03;0.60;;;27.50;99.90;;;;;;5024623;28;20057;-29
2022/09/01 10:18:33;;;;;;;4.10;0.85;;;27.40;99.90;;;;;;5031843;28;20038;-29
2022/09/01 10:21:08;;;;;;;0.95;0.50;;;27.00;99.90;;;;;;5036141;28;20068;-29
2022/09/01 10:23:43;;;;;;;1.10;0.60;;;26.80;99.90;;;;;;5040756;28;20110;-28
2022/09/01 10:26:24;;;;;;;1.30;0.88;;;26.80;99.90;;;;;;5047988;28;20399;-30
2022/09/01 10:29:15;;;;;;;1.73;0.60;;;27.10;99.90;;;;;;5038972;28;20483;-30
2022/09/01 10:31:41;;;;;;;0.98;0.80;;;27.00;99.90;;;;;;5036236;28;20045;-30
2022/09/01 10:34:12;;;;;;;2.40;0.60;;;26.90;99.90;;;;;;5036335;28;20050;-30
2022/09/01 10:36:42;;;;;;;1.48;0.50;;;26.10;99.90;;;;;;5035242;28;20068;-30
2022/09/01 10:39:18;;;;;;;2.85;0.50;;;25.80;99.90;;;;;;5035944;28;20399;-30
2022/09/01 10:41:49;;;;;;;2.10;0.45;;;25.30;99.90;;;;;;5051733;28;20067;-29
2022/09/01 10:44:38;;;;;;;1.92;0.43;;;24.70;99.90;;;;;;5055870;28;20088;-30
2022/09/01 10:47:32;;;;;;;0.75;0.25;;;24.30;99.90;;;;;;5039428;28;20045;-30
2022/09/01 10:50:28;;;;;;;2.30;0.40;;;24.70;99.90;;;;;;5034750;28;20097;-30
2022/09/01 10:52:59;;;;;;;1.10;0.50;;;24.70;99.90;;;;;;5031947;28;20068;-30
2022/09/01 10:55:35;;;;;;;1.42;0.45;;;25.00;99.90;;;;;;5034916;28;20045;-29
2022/09/01 10:58:03;;;;;;;1.77;0.45;;;26.00;99.90;;;;;;5034630;28;20045;-30
2022/09/01 11:00:29;;;;;;;2.42;0.47;;;27.00;99.90;;;;;;5035850;28;20132;-30
2022/09/01 11:03:25;;;;;;;5.22;0.70;;;27.10;99.90;;;;;;5035546;28;20468;-30
2022/09/01 11:06:11;;;;;;;0.77;0.20;;;26.80;99.90;;;;;;5035588;28;20045;-30
2022/09/01 11:08:46;;;;;;;3.13;2.15;;;27.30;1.00;;;;;;5034508;28;20037;-31
2022/09/01 11:11:43;;;;;;;2.65;0.47;;;27.00;1.00;;;;;;5045915;28;20053;-30
2022/09/01 11:14:25;;;;;;;2.92;0.40;;;26.30;1.00;;;;;;5040135;28;20403;-30
2022/09/01 11:17:09;;;;;;;1.30;0.50;;;26.60;1.00;;;;;;5038386;28;20049;-31
2022/09/01 11:19:37;;;;;;;3.35;0.30;;;27.60;1.00;;;;;;5037018;28;20045;-32
2022/09/01 11:22:12;;;;;;;1.08;0.38;;;28.30;1.00;;;;;;5034465;28;20136;-31
2022/09/01 11:24:41;;;;;;;0.60;0.20;;;29.00;1.00;;;;;;5042344;28;20084;-30
2022/09/01 11:27:09;;;;;;;1.02;0.40;;;29.90;1.00;;;;;;5032074;28;20407;-30
2022/09/01 11:29:59;;;;;;;0.98;0.40;;;30.50;1.00;;;;;;5051658;28;20051;-30
2022/09/01 11:32:39;;;;;;;1.13;0.30;;;29.80;13.80;;;;;;5031002;28;20045;-29
2022/09/01 11:35:19;;;;;;;1.17;0.80;;;29.00;8.60;;;;;;5034952;28;20057;-29
2022/09/01 11:37:51;;;;;;;1.60;0.60;;;28.40;11.90;;;;;;5034754;28;20491;-28
2022/09/01 11:40:32;;;;;;;2.30;0.30;;;28.70;11.00;;;;;;5034826;28;20096;-29
2022/09/01 11:43:07;;;;;;;1.10;0.43;;;28.90;36.80;;;;;;5034357;28;20099;-29
2022/09/01 11:45:43;;;;;;;2.95;0.65;;;28.50;29.30;;;;;;5034539;28;20041;-28
2022/09/01 11:48:11;;;;;;;2.88;0.40;;;28.60;30.70;;;;;;5035292;28;20045;-29
2022/09/01 11:50:40;;;;;;;0.77;0.40;;;28.30;52.50;;;;;;5032815;28;20506;-29
2022/09/01 11:53:12;;;;;;;2.95;0.52;;;27.30;43.70;;;;;;5032870;28;22361;-29
2022/09/01 11:55:48;;;;;;;4.50;0.73;;;26.30;23.70;;;;;;5033209;28;20438;-28
2022/09/01 11:58:32;;;;;;;2.63;0.95;;;25.40;1.00;;;;;;5043830;28;20454;-28
2022/09/01 12:01:18;;;;;;;2.55;0.40;;;24.50;4.90;;;;;;5050649;28;20037;-26
2022/09/01 12:03:48;;;;;;;0.95;0.30;;;24.60;1.30;;;;;;5022370;28;20052;-26
2022/09/01 12:06:30;;;;;;;2.42;0.38;;;25.50;29.60;;;;;;5015857;28;20054;-27
2022/09/01 12:08:58;;;;;;;2.20;0.40;;;26.30;45.70;;;;;;5014908;28;20060;-26
2022/09/01 12:11:35;;;;;;;1.45;0.43;;;26.90;48.30;;;;;;5031906;28;20107;-26
2022/09/01 12:14:07;;;;;;;2.95;0.40;;;27.40;79.80;;;;;;5034815;28;20095;-26
2022/09/01 12:16:35;;;;;;;;;;;28.00;96.00;;;;;;5032353;28;20045;-26
2022/09/01 12:19:04;;;;;;;3.58;0.40;;;27.90;98.00;;;;;;5034100;28;19987;-26
2022/09/01 12:21:37;;;;;;;3.47;0.47;;;28.30;99.90;;;;;;5033820;28;20132;-26
2022/09/01 12:24:17;;;;;;;1.85;0.40;;;28.50;99.90;;;;;;5034063;28;20046;-26
2022/09/01 12:26:45;;;;;;;0.88;0.52;;;28.80;99.90;;;;;;5029719;28;20046;-26
2022/09/01 12:29:15;;;;;;;2.25;0.45;;;28.40;99.90;;;;;;5033503;28;20384;-26
2022/09/01 12:31:45;;;;;;;2.88;0.68;;;27.70;99.90;;;;;;5030832;28;20095;-26
2022/09/01 12:34:30;;;;;;;4.80;0.63;;;27.70;99.90;;;;;;5053557;28;20058;-26
2022/09/01 12:37:08;;;;;;;4.32;0.40;;;28.10;99.90;;;;;;5052286;28;20518;-27
2022/09/01 12:39:45;;;;;;;2.25;0.68;;;28.20;99.90;;;;;;5054423;28;20053;-26
2022/09/01 12:42:32;;;;;;;3.20;0.60;;;27.80;99.90;;;;;;5050352;28;20479;-26
2022/09/01 12:45:00;;;;;;;2.00;0.50;;;27.50;99.90;;;;;;5034013;28;20085;-27
2022/09/01 12:47:39;;;;;;;3.72;0.50;;;27.10;99.90;;;;;;5031518;28;20125;-26
2022/09/01 12:50:11;;;;;;;1.30;0.40;;;26.90;99.90;;;;;;5031863;28;20446;-28
2022/09/01 12:52:46;;;;;;;2.77;0.40;;;27.20;99.90;;;;;;5036218;28;20041;-26
2022/09/01 12:55:33;;;;;;;1.52;0.38;;;27.90;99.90;;;;;;5034189;28;20832;-26
2022/09/01 12:58:02;;;;;;;1.83;0.75;;;28.40;99.90;;;;;;5032481;28;20056;-27
2022/09/01 13:00:30;;;;;;;3.03;0.40;;;27.80;99.90;;;;;;5038774;28;20107;-27
2022/09/01 13:03:02;;;;;;;1.63;0.40;;;27.30;99.90;;;;;;5051238;28;20402;-26
2022/09/01 13:05:32;;;;;;;1.50;0.35;;;26.60;99.90;;;;;;5031394;28;20045;-26
2022/09/01 13:08:04;;;;;;;1.65;0.43;;;26.30;99.90;;;;;;5032599;28;20128;-26
2022/09/01 13:10:34;;;;;;;1.63;0.40;;;26.70;99.90;;;;;;5040602;28;20090;-26
2022/09/01 13:13:00;;;;;;;1.08;0.43;;;27.40;99.90;;;;;;5053990;28;20056;-26
2022/09/01 13:15:27;;;;;;;1.73;0.30;;;28.30;99.90;;;;;;5051521;28;20045;-27
2022/09/01 13:17:52;;;;;;;1.55;0.43;;;28.80;99.90;;;;;;5032887;28;20372;-27
2022/09/01 13:20:18;;;;;;;4.43;0.40;;;29.40;99.90;;;;;;5033462;28;20053;-26
2022/09/01 13:22:44;;;;;;;0.55;0.43;;;29.20;99.90;;;;;;5033336;28;20053;-27